Terminal Aerodrome Forecast
Issued by NWS

Home | Current Version | Previous Version | Text Only | Print | Product List | Glossary On
Versions: 1 2 3 4 5 6 7 8 9 10 11 12 13 14 15 16
000
FTUS46 KMTR 292300 RRA
TAFSTS
TAF
KSTS 292345Z 3000/3024 19009KT P6SM BKN200
     FM300500 15004KT P6SM SCT200
      TEMPO 3009/3013 BKN005 OVC200
     FM301300 VRB03KT P6SM OVC005
     FM301630 VRB04KT P6SM SCT008 BKN200
     FM301900 19007KT P6SM SCT200=

USA.gov is the U.S. government's official web portal to all federal, state and local government web resources and services.